East Newark, New Jersey
Current Conditions -  °F | °C
As of 9:51 PM on Sunday 21 Dec 2014 (Local Time) from KEWR Reporting Station
Overcast Overcast  
Wind Chill: 28°   Ceiling: 3300
Heat Index: 35°   Visibility: 10mi
Dew Point: 28°   Wind: 9mph
Humidity: 76%   Direction: 20°NNE
Pressure: 30.33"   Gusts: NA
Location:  40.7442°N, 74.1517°W
Report Text: KEWR 220251Z 02008KT 10SM SCT018 OVC033 02/M02 A3033 RMK AO2 SLP271 T00171022 58003
Loading
Personal Weather Stations






























Interactive Weather Map New forecast layout! Learn more

10-Day Weather Forecast

Advertisements
Track Severe Weather on mobile